sensor_id;sensor_type;location;lat;lon;timestamp;pressure;altitude;pressure_sealevel;temperature;humidity
43071;BME280;36278;47.952;21.714;2023-01-01T00:00:11;101491.38;;;4.77;100.00
43071;BME280;36278;47.952;21.714;2023-01-01T00:02:37;101492.25;;;4.78;100.00
43071;BME280;36278;47.952;21.714;2023-01-01T00:05:03;101496.09;;;4.68;100.00
43071;BME280;36278;47.952;21.714;2023-01-01T00:07:29;101500.31;;;4.72;100.00
43071;BME280;36278;47.952;21.714;2023-01-01T00:09:54;101504.69;;;4.73;100.00
43071;BME280;36278;47.952;21.714;2023-01-01T00:12:42;101496.75;;;4.74;100.00
43071;BME280;36278;47.952;21.714;2023-01-01T00:15:08;101498.47;;;4.75;100.00
43071;BME280;36278;47.952;21.714;2023-01-01T00:17:34;101493.22;;;4.75;100.00
43071;BME280;36278;47.952;21.714;2023-01-01T00:19:59;101493.88;;;4.82;100.00
43071;BME280;36278;47.952;21.714;2023-01-01T00:22:25;101492.97;;;4.83;100.00
43071;BME280;36278;47.952;21.714;2023-01-01T00:24:51;101494.81;;;4.79;100.00
43071;BME280;36278;47.952;21.714;2023-01-01T00:27:17;101493.22;;;4.75;100.00
43071;BME280;36278;47.952;21.714;2023-01-01T00:29:43;101494.94;;;4.76;100.00
43071;BME280;36278;47.952;21.714;2023-01-01T00:32:09;101495.84;;;4.75;100.00
43071;BME280;36278;47.952;21.714;2023-01-01T00:34:37;101498.56;;;4.72;100.00
43071;BME280;36278;47.952;21.714;2023-01-01T00:37:02;101505.72;;;4.67;100.00
43071;BME280;36278;47.952;21.714;2023-01-01T00:39:28;101505.69;;;4.69;100.00
43071;BME280;36278;47.952;21.714;2023-01-01T00:41:54;101510.88;;;4.70;100.00
43071;BME280;36278;47.952;21.714;2023-01-01T00:44:19;101513.50;;;4.70;100.00
43071;BME280;36278;47.952;21.714;2023-01-01T00:46:45;101501.41;;;4.66;100.00
43071;BME280;36278;47.952;21.714;2023-01-01T00:49:11;101510.13;;;4.67;100.00
43071;BME280;36278;47.952;21.714;2023-01-01T00:51:36;101516.34;;;4.64;100.00
43071;BME280;36278;47.952;21.714;2023-01-01T00:54:02;101516.38;;;4.63;100.00
43071;BME280;36278;47.952;21.714;2023-01-01T00:56:28;101513.53;;;4.69;100.00
43071;BME280;36278;47.952;21.714;2023-01-01T00:58:53;101521.31;;;4.72;100.00
43071;BME280;36278;47.952;21.714;2023-01-01T01:01:20;101519.75;;;4.66;100.00
43071;BME280;36278;47.952;21.714;2023-01-01T01:03:46;101514.75;;;4.59;100.00
43071;BME280;36278;47.952;21.714;2023-01-01T01:06:15;101521.66;;;4.61;100.00
43071;BME280;36278;47.952;21.714;2023-01-01T01:08:44;101528.69;;;4.61;100.00
43071;BME280;36278;47.952;21.714;2023-01-01T01:11:18;101519.91;;;4.62;100.00
43071;BME280;36278;47.952;21.714;2023-01-01T01:13:45;101521.72;;;4.60;100.00
43071;BME280;36278;47.952;21.714;2023-01-01T01:16:17;101517.56;;;4.53;100.00
43071;BME280;36278;47.952;21.714;2023-01-01T01:18:45;101515.84;;;4.52;100.00
43071;BME280;36278;47.952;21.714;2023-01-01T01:21:15;101506.31;;;4.49;100.00
43071;BME280;36278;47.952;21.714;2023-01-01T01:23:42;101508.97;;;4.47;100.00
43071;BME280;36278;47.952;21.714;2023-01-01T01:26:21;101510.75;;;4.47;100.00
43071;BME280;36278;47.952;21.714;2023-01-01T01:28:47;101511.53;;;4.50;100.00
43071;BME280;36278;47.952;21.714;2023-01-01T01:31:13;101501.81;;;4.53;100.00
43071;BME280;36278;47.952;21.714;2023-01-01T01:33:42;101498.41;;;4.50;100.00
43071;BME280;36278;47.952;21.714;2023-01-01T01:36:08;101507.25;;;4.46;100.00
43071;BME280;36278;47.952;21.714;2023-01-01T01:38:34;101497.59;;;4.48;100.00
43071;BME280;36278;47.952;21.714;2023-01-01T01:41:00;101498.63;;;4.43;100.00
43071;BME280;36278;47.952;21.714;2023-01-01T01:46:16;101500.22;;;4.48;100.00
43071;BME280;36278;47.952;21.714;2023-01-01T01:48:49;101488.81;;;4.49;100.00
43071;BME280;36278;47.952;21.714;2023-01-01T01:51:22;101493.22;;;4.49;100.00
43071;BME280;36278;47.952;21.714;2023-01-01T01:53:54;101491.56;;;4.45;100.00
43071;BME280;36278;47.952;21.714;2023-01-01T01:56:37;101492.28;;;4.50;100.00
43071;BME280;36278;47.952;21.714;2023-01-01T01:59:05;101490.41;;;4.54;100.00
43071;BME280;36278;47.952;21.714;2023-01-01T02:01:30;101483.34;;;4.56;100.00
43071;BME280;36278;47.952;21.714;2023-01-01T02:03:58;101496.47;;;4.56;100.00
43071;BME280;36278;47.952;21.714;2023-01-01T02:06:26;101491.22;;;4.56;100.00
43071;BME280;36278;47.952;21.714;2023-01-01T02:08:54;101492.13;;;4.55;100.00
43071;BME280;36278;47.952;21.714;2023-01-01T02:11:21;101494.06;;;4.49;100.00
43071;BME280;36278;47.952;21.714;2023-01-01T02:13:49;101491.28;;;4.54;100.00
43071;BME280;36278;47.952;21.714;2023-01-01T02:16:41;101501.72;;;4.56;100.00
43071;BME280;36278;47.952;21.714;2023-01-01T02:25:03;101502.78;;;4.50;100.00
43071;BME280;36278;47.952;21.714;2023-01-01T02:30:09;101485.41;;;4.46;100.00
43071;BME280;36278;47.952;21.714;2023-01-01T02:32:40;101494.13;;;4.46;100.00
43071;BME280;36278;47.952;21.714;2023-01-01T02:35:19;101491.22;;;4.56;100.00
43071;BME280;36278;47.952;21.714;2023-01-01T02:38:10;101497.53;;;4.50;100.00
43071;BME280;36278;47.952;21.714;2023-01-01T02:40:45;101490.72;;;4.44;100.00
43071;BME280;36278;47.952;21.714;2023-01-01T02:43:12;101495.84;;;4.47;100.00
43071;BME280;36278;47.952;21.714;2023-01-01T02:45:37;101498.41;;;4.50;100.00
43071;BME280;36278;47.952;21.714;2023-01-01T02:51:10;101499.25;;;4.51;100.00
43071;BME280;36278;47.952;21.714;2023-01-01T02:53:58;101503.69;;;4.49;100.00
43071;BME280;36278;47.952;21.714;2023-01-01T03:05:52;101492.59;;;4.67;100.00
43071;BME280;36278;47.952;21.714;2023-01-01T03:08:50;101491.63;;;4.70;100.00
43071;BME280;36278;47.952;21.714;2023-01-01T03:11:19;101491.75;;;4.67;100.00
43071;BME280;36278;47.952;21.714;2023-01-01T03:14:11;101502.59;;;4.56;100.00
43071;BME280;36278;47.952;21.714;2023-01-01T03:19:25;101499.53;;;4.42;100.00
43071;BME280;36278;47.952;21.714;2023-01-01T03:22:04;101503.78;;;4.46;100.00
43071;BME280;36278;47.952;21.714;2023-01-01T03:24:51;101487.56;;;4.33;100.00
43071;BME280;36278;47.952;21.714;2023-01-01T03:27:22;101498.78;;;4.38;100.00
43071;BME280;36278;47.952;21.714;2023-01-01T03:29:52;101508.41;;;4.38;100.00
43071;BME280;36278;47.952;21.714;2023-01-01T03:32:27;101503.31;;;4.33;100.00
43071;BME280;36278;47.952;21.714;2023-01-01T03:35:18;101510.28;;;4.34;100.00
43071;BME280;36278;47.952;21.714;2023-01-01T03:37:48;101513.66;;;4.38;100.00
43071;BME280;36278;47.952;21.714;2023-01-01T03:40:19;101509.38;;;4.35;100.00
43071;BME280;36278;47.952;21.714;2023-01-01T03:42:49;101500.47;;;4.39;100.00
43071;BME280;36278;47.952;21.714;2023-01-01T03:45:29;101513.66;;;4.38;100.00
43071;BME280;36278;47.952;21.714;2023-01-01T03:47:55;101519.56;;;4.44;100.00
43071;BME280;36278;47.952;21.714;2023-01-01T03:50:29;101518.59;;;4.48;100.00
43071;BME280;36278;47.952;21.714;2023-01-01T03:53:12;101523.91;;;4.45;100.00
43071;BME280;36278;47.952;21.714;2023-01-01T03:55:45;101530.97;;;4.43;100.00
43071;BME280;36278;47.952;21.714;2023-01-01T03:58:17;101523.97;;;4.44;100.00
43071;BME280;36278;47.952;21.714;2023-01-01T04:00:57;101527.38;;;4.46;100.00
43071;BME280;36278;47.952;21.714;2023-01-01T04:03:28;101529.34;;;4.39;100.00
43071;BME280;36278;47.952;21.714;2023-01-01T04:05:54;101527.72;;;4.35;100.00
43071;BME280;36278;47.952;21.714;2023-01-01T04:08:20;101520.19;;;4.25;100.00
43071;BME280;36278;47.952;21.714;2023-01-01T04:10:49;101522.03;;;4.21;100.00
43071;BME280;36278;47.952;21.714;2023-01-01T04:13:15;101517.66;;;4.21;100.00
43071;BME280;36278;47.952;21.714;2023-01-01T04:15:41;101511.66;;;4.18;100.00
43071;BME280;36278;47.952;21.714;2023-01-01T04:18:06;101504.63;;;4.18;100.00
43071;BME280;36278;47.952;21.714;2023-01-01T04:20:32;101512.28;;;4.26;100.00
43071;BME280;36278;47.952;21.714;2023-01-01T04:22:58;101513.09;;;4.28;100.00
43071;BME280;36278;47.952;21.714;2023-01-01T04:25:24;101527.38;;;4.46;100.00
43071;BME280;36278;47.952;21.714;2023-01-01T04:27:50;101512.72;;;4.40;100.00
43071;BME280;36278;47.952;21.714;2023-01-01T04:30:16;101518.03;;;4.37;100.00
43071;BME280;36278;47.952;21.714;2023-01-01T04:32:42;101527.56;;;4.41;100.00
43071;BME280;36278;47.952;21.714;2023-01-01T04:35:09;101529.31;;;4.41;100.00
43071;BME280;36278;47.952;21.714;2023-01-01T04:37:37;101531.25;;;4.34;100.00
43071;BME280;36278;47.952;21.714;2023-01-01T04:40:04;101538.28;;;4.34;100.00
43071;BME280;36278;47.952;21.714;2023-01-01T04:42:29;101539.06;;;4.36;100.00
43071;BME280;36278;47.952;21.714;2023-01-01T04:44:55;101529.63;;;4.30;100.00
43071;BME280;36278;47.952;21.714;2023-01-01T04:47:20;101526.94;;;4.33;100.00
43071;BME280;36278;47.952;21.714;2023-01-01T04:49:46;101524.19;;;4.36;100.00
43071;BME280;36278;47.952;21.714;2023-01-01T04:52:11;101522.81;;;4.53;100.00
43071;BME280;36278;47.952;21.714;2023-01-01T04:54:37;101517.22;;;4.63;100.00
43071;BME280;36278;47.952;21.714;2023-01-01T04:57:02;101520.47;;;4.71;100.00
43071;BME280;36278;47.952;21.714;2023-01-01T04:59:29;101530.69;;;4.81;100.00
43071;BME280;36278;47.952;21.714;2023-01-01T05:01:55;101526.91;;;4.89;100.00
43071;BME280;36278;47.952;21.714;2023-01-01T05:04:20;101534.56;;;4.95;100.00
43071;BME280;36278;47.952;21.714;2023-01-01T05:06:46;101540.47;;;5.02;100.00
43071;BME280;36278;47.952;21.714;2023-01-01T05:09:12;101535.06;;;5.06;100.00
43071;BME280;36278;47.952;21.714;2023-01-01T05:11:37;101544.56;;;5.11;100.00
43071;BME280;36278;47.952;21.714;2023-01-01T05:14:03;101539.50;;;5.04;100.00
43071;BME280;36278;47.952;21.714;2023-01-01T05:16:31;101539.47;;;5.06;100.00
43071;BME280;36278;47.952;21.714;2023-01-01T05:18:57;101552.34;;;5.14;100.00
43071;BME280;36278;47.952;21.714;2023-01-01T05:21:25;101558.06;;;5.00;100.00
43071;BME280;36278;47.952;21.714;2023-01-01T05:23:56;101562.03;;;4.85;100.00
43071;BME280;36278;47.952;21.714;2023-01-01T05:26:25;101567.75;;;4.70;100.00
43071;BME280;36278;47.952;21.714;2023-01-01T05:28:53;101566.44;;;4.57;100.00
43071;BME280;36278;47.952;21.714;2023-01-01T05:31:21;101576.09;;;4.56;100.00
43071;BME280;36278;47.952;21.714;2023-01-01T05:33:47;101573.72;;;4.47;100.00
43071;BME280;36278;47.952;21.714;2023-01-01T05:36:15;101579.06;;;4.44;100.00
43071;BME280;36278;47.952;21.714;2023-01-01T05:38:41;101586.41;;;4.33;100.00
43071;BME280;36278;47.952;21.714;2023-01-01T05:41:08;101595.34;;;4.26;100.00
43071;BME280;36278;47.952;21.714;2023-01-01T05:43:36;101592.09;;;4.17;100.00
43071;BME280;36278;47.952;21.714;2023-01-01T05:46:04;101592.25;;;4.11;100.00
43071;BME280;36278;47.952;21.714;2023-01-01T05:48:29;101598.63;;;4.03;100.00
43071;BME280;36278;47.952;21.714;2023-01-01T05:51:11;101603.38;;;3.88;100.00
43071;BME280;36278;47.952;21.714;2023-01-01T05:53:37;101591.13;;;3.89;100.00
43071;BME280;36278;47.952;21.714;2023-01-01T05:56:03;101597.22;;;3.89;100.00
43071;BME280;36278;47.952;21.714;2023-01-01T05:58:31;101597.28;;;3.88;100.00
43071;BME280;36278;47.952;21.714;2023-01-01T06:01:00;101591.22;;;3.86;100.00
43071;BME280;36278;47.952;21.714;2023-01-01T06:03:29;101591.19;;;3.87;100.00
43071;BME280;36278;47.952;21.714;2023-01-01T06:05:55;101588.78;;;3.80;100.00
43071;BME280;36278;47.952;21.714;2023-01-01T06:08:20;101593.00;;;3.85;100.00
43071;BME280;36278;47.952;21.714;2023-01-01T06:10:45;101595.72;;;3.81;100.00
43071;BME280;36278;47.952;21.714;2023-01-01T06:13:11;101594.25;;;3.71;100.00
43071;BME280;36278;47.952;21.714;2023-01-01T06:15:36;101601.31;;;3.69;100.00
43071;BME280;36278;47.952;21.714;2023-01-01T06:18:02;101604.00;;;3.65;100.00
43071;BME280;36278;47.952;21.714;2023-01-01T06:20:27;101596.22;;;3.62;100.00
43071;BME280;36278;47.952;21.714;2023-01-01T06:22:53;101602.47;;;3.57;100.00
43071;BME280;36278;47.952;21.714;2023-01-01T06:25:19;101602.47;;;3.57;100.00
43071;BME280;36278;47.952;21.714;2023-01-01T06:27:44;101594.63;;;3.57;100.00
43071;BME280;36278;47.952;21.714;2023-01-01T06:30:10;101590.41;;;3.51;100.00
43071;BME280;36278;47.952;21.714;2023-01-01T06:32:35;101601.72;;;3.53;100.00
43071;BME280;36278;47.952;21.714;2023-01-01T06:35:01;101600.91;;;3.50;100.00
43071;BME280;36278;47.952;21.714;2023-01-01T06:37:27;101606.13;;;3.51;100.00
43071;BME280;36278;47.952;21.714;2023-01-01T06:39:52;101597.34;;;3.54;100.00
43071;BME280;36278;47.952;21.714;2023-01-01T06:42:18;101592.78;;;3.60;100.00
43071;BME280;36278;47.952;21.714;2023-01-01T06:44:43;101600.66;;;3.60;100.00
43071;BME280;36278;47.952;21.714;2023-01-01T06:47:09;101600.50;;;3.65;100.00
43071;BME280;36278;47.952;21.714;2023-01-01T06:49:34;101599.56;;;3.69;100.00
43071;BME280;36278;47.952;21.714;2023-01-01T06:52:00;101601.16;;;3.73;100.00
43071;BME280;36278;47.952;21.714;2023-01-01T06:54:25;101606.41;;;3.75;100.00
43071;BME280;36278;47.952;21.714;2023-01-01T06:56:51;101609.94;;;3.72;100.00
43071;BME280;36278;47.952;21.714;2023-01-01T06:59:16;101609.22;;;3.67;100.00
43071;BME280;36278;47.952;21.714;2023-01-01T07:01:42;101613.41;;;3.73;100.00
43071;BME280;36278;47.952;21.714;2023-01-01T07:04:11;101613.38;;;3.74;100.00
43071;BME280;36278;47.952;21.714;2023-01-01T07:06:38;101616.09;;;3.71;100.00
43071;BME280;36278;47.952;21.714;2023-01-01T07:09:05;101616.78;;;3.78;100.00
43071;BME280;36278;47.952;21.714;2023-01-01T07:11:31;101624.56;;;3.81;100.00
43071;BME280;36278;47.952;21.714;2023-01-01T07:13:56;101631.41;;;3.86;100.00
43071;BME280;36278;47.952;21.714;2023-01-01T07:16:23;101629.59;;;3.88;100.00
43071;BME280;36278;47.952;21.714;2023-01-01T07:18:49;101639.88;;;3.96;100.00
43071;BME280;36278;47.952;21.714;2023-01-01T07:21:42;101637.31;;;3.94;100.00
43071;BME280;36278;47.952;21.714;2023-01-01T07:24:11;101628.63;;;3.92;100.00
43071;BME280;36278;47.952;21.714;2023-01-01T07:26:37;101637.56;;;3.85;100.00
43071;BME280;36278;47.952;21.714;2023-01-01T07:29:03;101639.22;;;3.88;100.00
43071;BME280;36278;47.952;21.714;2023-01-01T07:31:28;101640.72;;;3.97;100.00
43071;BME280;36278;47.952;21.714;2023-01-01T07:33:54;101639.75;;;4.01;100.00
43071;BME280;36278;47.952;21.714;2023-01-01T07:36:19;101647.31;;;4.11;100.00
43071;BME280;36278;47.952;21.714;2023-01-01T07:38:45;101648.13;;;4.13;100.00
43071;BME280;36278;47.952;21.714;2023-01-01T07:41:10;101648.19;;;4.12;100.00
43071;BME280;36278;47.952;21.714;2023-01-01T07:43:36;101645.31;;;4.21;100.00
43071;BME280;36278;47.952;21.714;2023-01-01T07:46:02;101645.25;;;4.24;100.00
43071;BME280;36278;47.952;21.714;2023-01-01T07:48:28;101647.66;;;4.30;100.00
43071;BME280;36278;47.952;21.714;2023-01-01T07:50:54;101640.53;;;4.35;100.00
43071;BME280;36278;47.952;21.714;2023-01-01T07:53:19;101649.03;;;4.43;100.00
43071;BME280;36278;47.952;21.714;2023-01-01T07:55:44;101647.16;;;4.48;100.00
43071;BME280;36278;47.952;21.714;2023-01-01T07:58:10;101655.66;;;4.57;100.00
43071;BME280;36278;47.952;21.714;2023-01-01T08:00:36;101659.09;;;4.59;100.00
43071;BME280;36278;47.952;21.714;2023-01-01T08:03:02;101658.94;;;4.63;100.00
43071;BME280;36278;47.952;21.714;2023-01-01T08:05:27;101664.88;;;4.70;100.00
43071;BME280;36278;47.952;21.714;2023-01-01T08:07:53;101667.22;;;4.79;100.00
43071;BME280;36278;47.952;21.714;2023-01-01T08:10:19;101676.56;;;4.89;100.00
43071;BME280;36278;47.952;21.714;2023-01-01T08:12:45;101684.38;;;4.91;100.00
43071;BME280;36278;47.952;21.714;2023-01-01T08:15:11;101681.53;;;4.98;100.00
43071;BME280;36278;47.952;21.714;2023-01-01T08:17:37;101689.19;;;5.04;100.00
43071;BME280;36278;47.952;21.714;2023-01-01T08:20:03;101688.72;;;5.20;100.00
43071;BME280;36278;47.952;21.714;2023-01-01T08:22:29;101678.59;;;5.35;100.00
43071;BME280;36278;47.952;21.714;2023-01-01T08:24:54;101682.38;;;5.53;100.00
43071;BME280;36278;47.952;21.714;2023-01-01T08:27:20;101676.53;;;5.72;100.00
43071;BME280;36278;47.952;21.714;2023-01-01T08:29:45;101683.06;;;5.85;100.00
43071;BME280;36278;47.952;21.714;2023-01-01T08:32:11;101690.59;;;5.97;100.00
43071;BME280;36278;47.952;21.714;2023-01-01T08:34:37;101678.22;;;5.99;100.00
43071;BME280;36278;47.952;21.714;2023-01-01T08:37:03;101689.03;;;6.16;100.00
43071;BME280;36278;47.952;21.714;2023-01-01T08:39:29;101692.72;;;6.36;100.00
43071;BME280;36278;47.952;21.714;2023-01-01T08:41:54;101691.28;;;6.51;100.00
43071;BME280;36278;47.952;21.714;2023-01-01T08:44:20;101698.56;;;6.67;100.00
43071;BME280;36278;47.952;21.714;2023-01-01T08:46:45;101702.53;;;6.79;100.00
43071;BME280;36278;47.952;21.714;2023-01-01T08:49:11;101700.16;;;6.95;100.00
43071;BME280;36278;47.952;21.714;2023-01-01T08:51:36;101708.28;;;7.12;100.00
43071;BME280;36278;47.952;21.714;2023-01-01T08:54:02;101708.91;;;7.19;100.00
43071;BME280;36278;47.952;21.714;2023-01-01T08:56:27;101704.84;;;7.32;100.00
43071;BME280;36278;47.952;21.714;2023-01-01T08:58:53;101707.06;;;7.43;100.00
43071;BME280;36278;47.952;21.714;2023-01-01T09:01:18;101718.81;;;7.56;100.00
43071;BME280;36278;47.952;21.714;2023-01-01T09:03:46;101713.03;;;7.68;100.00
43071;BME280;36278;47.952;21.714;2023-01-01T09:06:12;101721.59;;;7.73;100.00
43071;BME280;36278;47.952;21.714;2023-01-01T09:08:38;101721.50;;;7.76;100.00
43071;BME280;36278;47.952;21.714;2023-01-01T09:11:03;101706.28;;;7.83;100.00
43071;BME280;36278;47.952;21.714;2023-01-01T09:13:29;101711.88;;;7.96;100.00
43071;BME280;36278;47.952;21.714;2023-01-01T09:15:55;101707.03;;;8.07;100.00
43071;BME280;36278;47.952;21.714;2023-01-01T09:18:21;101705.69;;;8.17;100.00
43071;BME280;36278;47.952;21.714;2023-01-01T09:20:47;101707.75;;;8.31;100.00
43071;BME280;36278;47.952;21.714;2023-01-01T09:23:12;101700.59;;;8.33;100.00
43071;BME280;36278;47.952;21.714;2023-01-01T09:25:38;101697.81;;;8.56;100.00
43071;BME280;36278;47.952;21.714;2023-01-01T09:28:06;101697.97;;;8.72;100.00
43071;BME280;36278;47.952;21.714;2023-01-01T09:30:33;101690.06;;;8.91;100.00
43071;BME280;36278;47.952;21.714;2023-01-01T09:33:00;101689.25;;;9.08;100.00
43071;BME280;36278;47.952;21.714;2023-01-01T09:35:26;101690.03;;;9.29;100.00
43071;BME280;36278;47.952;21.714;2023-01-01T09:37:51;101681.19;;;9.47;100.00
43071;BME280;36278;47.952;21.714;2023-01-01T09:46:01;101670.94;;;10.10;100.00
43071;BME280;36278;47.952;21.714;2023-01-01T09:48:29;101669.81;;;10.31;100.00
43071;BME280;36278;47.952;21.714;2023-01-01T09:50:55;101664.81;;;10.43;99.27
43071;BME280;36278;47.952;21.714;2023-01-01T09:53:33;101665.94;;;10.54;98.75
43071;BME280;36278;47.952;21.714;2023-01-01T09:56:02;101664.34;;;10.68;97.99
43071;BME280;36278;47.952;21.714;2023-01-01T09:58:31;101661.69;;;10.68;97.58
43071;BME280;36278;47.952;21.714;2023-01-01T10:03:33;101663.31;;;10.70;98.69
43071;BME280;36278;47.952;21.714;2023-01-01T10:11:41;101669.66;;;10.68;98.47
43071;BME280;36278;47.952;21.714;2023-01-01T10:14:37;101671.28;;;10.70;98.25
43071;BME280;36278;47.952;21.714;2023-01-01T10:17:47;101668.63;;;10.70;97.82
43071;BME280;36278;47.952;21.714;2023-01-01T10:20:16;101658.97;;;10.69;98.21
43071;BME280;36278;47.952;21.714;2023-01-01T10:22:46;101666.84;;;10.86;97.16
43071;BME280;36278;47.952;21.714;2023-01-01T10:25:18;101665.66;;;10.92;96.47
43071;BME280;36278;47.952;21.714;2023-01-01T10:27:57;101652.81;;;11.00;95.43
43071;BME280;36278;47.952;21.714;2023-01-01T10:30:24;101659.47;;;11.07;95.85
43071;BME280;36278;47.952;21.714;2023-01-01T10:32:51;101666.06;;;11.16;95.29
43071;BME280;36278;47.952;21.714;2023-01-01T10:35:23;101671.63;;;11.27;94.65
43071;BME280;36278;47.952;21.714;2023-01-01T10:37:57;101672.03;;;11.19;94.29
43071;BME280;36278;47.952;21.714;2023-01-01T10:40:24;101665.59;;;11.23;94.49
43071;BME280;36278;47.952;21.714;2023-01-01T10:42:55;101659.09;;;11.29;95.08
43071;BME280;36278;47.952;21.714;2023-01-01T10:51:04;101652.84;;;11.30;94.54
43071;BME280;36278;47.952;21.714;2023-01-01T10:53:41;101647.44;;;11.32;95.02
43071;BME280;36278;47.952;21.714;2023-01-01T10:56:11;101652.72;;;11.17;95.81
43071;BME280;36278;47.952;21.714;2023-01-01T11:01:18;101645.09;;;11.11;95.94
43071;BME280;36278;47.952;21.714;2023-01-01T11:06:37;101648.53;;;10.98;96.98
43071;BME280;36278;47.952;21.714;2023-01-01T11:11:44;101643.66;;;10.90;97.64
43071;BME280;36278;47.952;21.714;2023-01-01T11:14:23;101638.00;;;10.64;100.00
43071;BME280;36278;47.952;21.714;2023-01-01T11:16:50;101650.25;;;10.67;100.00
43071;BME280;36278;47.952;21.714;2023-01-01T11:19:27;101645.00;;;10.65;100.00
43071;BME280;36278;47.952;21.714;2023-01-01T11:21:54;101642.78;;;10.58;100.00
43071;BME280;36278;47.952;21.714;2023-01-01T11:24:27;101640.06;;;10.59;100.00
43071;BME280;36278;47.952;21.714;2023-01-01T11:27:30;101645.78;;;10.68;100.00
43071;BME280;36278;47.952;21.714;2023-01-01T11:32:43;101628.59;;;10.75;100.00
43071;BME280;36278;47.952;21.714;2023-01-01T11:35:16;101632.88;;;10.93;99.57
43071;BME280;36278;47.952;21.714;2023-01-01T11:37:44;101626.31;;;11.00;98.95
43071;BME280;36278;47.952;21.714;2023-01-01T11:40:28;101615.69;;;11.00;98.41
43071;BME280;36278;47.952;21.714;2023-01-01T11:42:59;101619.34;;;10.98;98.24
43071;BME280;36278;47.952;21.714;2023-01-01T11:45:34;101615.19;;;10.93;98.46
43071;BME280;36278;47.952;21.714;2023-01-01T11:48:11;101612.09;;;10.85;98.73
43071;BME280;36278;47.952;21.714;2023-01-01T11:50:40;101614.56;;;10.88;99.13
43071;BME280;36278;47.952;21.714;2023-01-01T11:59:01;101609.69;;;10.97;99.46
43071;BME280;36278;47.952;21.714;2023-01-01T12:04:00;101598.66;;;11.04;100.00
43071;BME280;36278;47.952;21.714;2023-01-01T12:08:58;101589.47;;;11.26;98.29
43071;BME280;36278;47.952;21.714;2023-01-01T12:11:37;101582.94;;;11.31;97.46
43071;BME280;36278;47.952;21.714;2023-01-01T12:17:02;101568.50;;;11.51;97.18
43071;BME280;36278;47.952;21.714;2023-01-01T12:19:55;101573.56;;;11.70;95.75
43071;BME280;36278;47.952;21.714;2023-01-01T12:22:22;101574.47;;;11.85;94.71
43071;BME280;36278;47.952;21.714;2023-01-01T12:24:48;101575.81;;;11.92;93.75
43071;BME280;36278;47.952;21.714;2023-01-01T12:27:15;101581.50;;;12.00;93.92
43071;BME280;36278;47.952;21.714;2023-01-01T12:30:03;101574.66;;;12.24;92.55
43071;BME280;36278;47.952;21.714;2023-01-01T12:43:19;101566.13;;;12.75;88.98
43071;BME280;36278;47.952;21.714;2023-01-01T12:46:32;101560.19;;;12.84;88.68
43071;BME280;36278;47.952;21.714;2023-01-01T12:54:01;101554.97;;;13.09;87.30
43071;BME280;36278;47.952;21.714;2023-01-01T12:56:42;101557.59;;;13.24;87.19
43071;BME280;36278;47.952;21.714;2023-01-01T12:59:14;101548.34;;;13.29;87.36
43071;BME280;36278;47.952;21.714;2023-01-01T13:01:42;101557.72;;;13.22;87.87
43071;BME280;36278;47.952;21.714;2023-01-01T13:04:14;101553.69;;;13.29;86.89
43071;BME280;36278;47.952;21.714;2023-01-01T13:06:56;101556.06;;;13.72;85.69
43071;BME280;36278;47.952;21.714;2023-01-01T13:09:32;101555.00;;;13.74;84.13
43071;BME280;36278;47.952;21.714;2023-01-01T13:12:19;101558.31;;;13.53;84.82
43071;BME280;36278;47.952;21.714;2023-01-01T13:14:47;101562.19;;;13.22;86.53
43071;BME280;36278;47.952;21.714;2023-01-01T13:17:26;101568.63;;;12.90;88.05
43071;BME280;36278;47.952;21.714;2023-01-01T13:19:58;101566.97;;;12.75;89.42
43071;BME280;36278;47.952;21.714;2023-01-01T13:38:43;101543.19;;;13.79;84.39
43071;BME280;36278;47.952;21.714;2023-01-01T13:43:50;101559.16;;;13.91;84.44
43071;BME280;36278;47.952;21.714;2023-01-01T13:46:18;101556.69;;;14.14;83.25
43071;BME280;36278;47.952;21.714;2023-01-01T13:54:46;101561.16;;;14.26;81.36
43071;BME280;36278;47.952;21.714;2023-01-01T14:00:13;101565.00;;;13.18;87.00
43071;BME280;36278;47.952;21.714;2023-01-01T14:02:45;101567.19;;;12.72;89.97
43071;BME280;36278;47.952;21.714;2023-01-01T14:05:38;101568.94;;;12.45;91.75
43071;BME280;36278;47.952;21.714;2023-01-01T14:08:02;101579.50;;;12.18;93.70
43071;BME280;36278;47.952;21.714;2023-01-01T14:10:30;101584.06;;;12.01;93.93
43071;BME280;36278;47.952;21.714;2023-01-01T14:13:14;101580.97;;;11.65;96.24
43071;BME280;36278;47.952;21.714;2023-01-01T14:18:15;101593.06;;;11.25;98.29
43071;BME280;36278;47.952;21.714;2023-01-01T14:20:48;101608.72;;;11.13;99.21
43071;BME280;36278;47.952;21.714;2023-01-01T14:23:21;101606.81;;;10.85;100.00
43071;BME280;36278;47.952;21.714;2023-01-01T14:25:50;101603.22;;;10.71;100.00
43071;BME280;36278;47.952;21.714;2023-01-01T14:28:20;101602.88;;;10.61;100.00
43071;BME280;36278;47.952;21.714;2023-01-01T14:30:48;101611.34;;;10.52;100.00
43071;BME280;36278;47.952;21.714;2023-01-01T14:33:26;101612.84;;;10.40;100.00
43071;BME280;36278;47.952;21.714;2023-01-01T14:35:57;101615.03;;;10.32;100.00
43071;BME280;36278;47.952;21.714;2023-01-01T14:38:26;101613.75;;;10.23;100.00
43071;BME280;36278;47.952;21.714;2023-01-01T14:43:37;101607.00;;;10.00;100.00
43071;BME280;36278;47.952;21.714;2023-01-01T14:46:05;101597.91;;;9.89;100.00
43071;BME280;36278;47.952;21.714;2023-01-01T14:48:31;101607.09;;;9.81;100.00
43071;BME280;36278;47.952;21.714;2023-01-01T14:50:58;101613.72;;;9.73;100.00